sensor_id;sensor_type;location;lat;lon;timestamp;pressure;altitude;pressure_sealevel;temperature;humidity
61292;BME280;47165;42.664;23.368;2024-03-02T00:00:38;94469.47;;;11.35;60.60
61292;BME280;47165;42.664;23.368;2024-03-02T00:03:06;94474.69;;;11.35;60.55
61292;BME280;47165;42.664;23.368;2024-03-02T00:05:32;94478.28;;;11.34;60.83
61292;BME280;47165;42.664;23.368;2024-03-02T00:07:58;94473.22;;;11.44;60.61
61292;BME280;47165;42.664;23.368;2024-03-02T00:10:35;94473.84;;;11.47;60.49
61292;BME280;47165;42.664;23.368;2024-03-02T00:13:02;94470.63;;;11.57;60.26
61292;BME280;47165;42.664;23.368;2024-03-02T00:15:51;94476.44;;;11.60;60.26
61292;BME280;47165;42.664;23.368;2024-03-02T00:18:20;94472.97;;;11.73;59.91
61292;BME280;47165;42.664;23.368;2024-03-02T00:20:46;94472.06;;;11.74;59.88
61292;BME280;47165;42.664;23.368;2024-03-02T00:23:16;94459.81;;;11.74;59.98
61292;BME280;47165;42.664;23.368;2024-03-02T00:25:50;94462.00;;;11.80;59.64
61292;BME280;47165;42.664;23.368;2024-03-02T00:28:27;94468.91;;;11.81;59.75
61292;BME280;47165;42.664;23.368;2024-03-02T00:31:04;94466.28;;;11.81;59.59
61292;BME280;47165;42.664;23.368;2024-03-02T00:33:57;94457.47;;;11.82;59.45
61292;BME280;47165;42.664;23.368;2024-03-02T00:36:25;94459.28;;;11.82;59.41
61292;BME280;47165;42.664;23.368;2024-03-02T00:38:53;94444.75;;;11.78;59.72
61292;BME280;47165;42.664;23.368;2024-03-02T00:41:27;94448.91;;;11.80;59.83
61292;BME280;47165;42.664;23.368;2024-03-02T00:46:23;94451.09;;;11.86;59.90
61292;BME280;47165;42.664;23.368;2024-03-02T00:48:56;94447.97;;;11.94;59.35
61292;BME280;47165;42.664;23.368;2024-03-02T00:51:23;94433.00;;;11.83;59.42
61292;BME280;47165;42.664;23.368;2024-03-02T00:53:50;94436.47;;;11.84;59.32
61292;BME280;47165;42.664;23.368;2024-03-02T00:56:16;94441.59;;;11.85;59.14
61292;BME280;47165;42.664;23.368;2024-03-02T00:58:42;94429.03;;;11.91;59.03
61292;BME280;47165;42.664;23.368;2024-03-02T01:01:07;94434.25;;;11.91;58.76
61292;BME280;47165;42.664;23.368;2024-03-02T01:03:34;94435.22;;;11.90;58.97
61292;BME280;47165;42.664;23.368;2024-03-02T01:05:59;94437.72;;;11.91;59.09
61292;BME280;47165;42.664;23.368;2024-03-02T01:08:25;94438.22;;;11.96;58.92
61292;BME280;47165;42.664;23.368;2024-03-02T01:10:51;94443.25;;;11.86;58.67
61292;BME280;47165;42.664;23.368;2024-03-02T01:13:16;94445.13;;;11.97;58.44
61292;BME280;47165;42.664;23.368;2024-03-02T01:15:42;94438.22;;;11.96;58.55
61292;BME280;47165;42.664;23.368;2024-03-02T01:18:07;94438.84;;;12.00;58.86
61292;BME280;47165;42.664;23.368;2024-03-02T01:20:33;94436.53;;;11.95;59.06
61292;BME280;47165;42.664;23.368;2024-03-02T01:22:59;94435.28;;;12.01;59.11
61292;BME280;47165;42.664;23.368;2024-03-02T01:25:24;94429.22;;;12.00;59.30
61292;BME280;47165;42.664;23.368;2024-03-02T01:27:50;94429.84;;;12.04;59.54
61292;BME280;47165;42.664;23.368;2024-03-02T01:30:16;94420.81;;;12.08;59.44
61292;BME280;47165;42.664;23.368;2024-03-02T01:32:41;94422.47;;;12.09;59.75
61292;BME280;47165;42.664;23.368;2024-03-02T01:35:07;94418.94;;;12.10;60.26
61292;BME280;47165;42.664;23.368;2024-03-02T01:37:33;94420.69;;;12.10;60.29
61292;BME280;47165;42.664;23.368;2024-03-02T01:39:58;94414.28;;;12.14;60.17
61292;BME280;47165;42.664;23.368;2024-03-02T01:42:24;94424.56;;;12.17;60.21
61292;BME280;47165;42.664;23.368;2024-03-02T01:44:49;94414.28;;;12.14;59.93
61292;BME280;47165;42.664;23.368;2024-03-02T01:47:15;94407.16;;;12.16;60.04
61292;BME280;47165;42.664;23.368;2024-03-02T01:49:40;94399.44;;;12.14;60.37
61292;BME280;47165;42.664;23.368;2024-03-02T01:52:07;94400.47;;;12.12;60.85
61292;BME280;47165;42.664;23.368;2024-03-02T01:54:32;94412.53;;;12.14;60.45
61292;BME280;47165;42.664;23.368;2024-03-02T01:56:59;94409.19;;;12.12;60.21
61292;BME280;47165;42.664;23.368;2024-03-02T01:59:24;94402.78;;;12.16;60.16
61292;BME280;47165;42.664;23.368;2024-03-02T02:01:50;94408.03;;;12.16;60.04
61292;BME280;47165;42.664;23.368;2024-03-02T02:04:15;94411.81;;;12.12;60.06
61292;BME280;47165;42.664;23.368;2024-03-02T02:06:41;94403.81;;;12.14;60.31
61292;BME280;47165;42.664;23.368;2024-03-02T02:09:06;94409.78;;;12.16;59.93
61292;BME280;47165;42.664;23.368;2024-03-02T02:11:34;94406.44;;;12.14;60.09
61292;BME280;47165;42.664;23.368;2024-03-02T02:13:59;94409.28;;;12.11;60.14
61292;BME280;47165;42.664;23.368;2024-03-02T02:16:25;94398.59;;;12.14;60.24
61292;BME280;47165;42.664;23.368;2024-03-02T02:18:50;94400.16;;;12.16;60.47
61292;BME280;47165;42.664;23.368;2024-03-02T02:21:16;94404.44;;;12.17;60.06
61292;BME280;47165;42.664;23.368;2024-03-02T02:23:41;94401.81;;;12.17;59.85
61292;BME280;47165;42.664;23.368;2024-03-02T02:26:11;94398.81;;;12.11;59.96
61292;BME280;47165;42.664;23.368;2024-03-02T02:28:37;94396.59;;;12.17;59.83
61292;BME280;47165;42.664;23.368;2024-03-02T02:31:02;94386.84;;;12.19;59.50
61292;BME280;47165;42.664;23.368;2024-03-02T02:33:28;94401.09;;;12.15;59.71
61292;BME280;47165;42.664;23.368;2024-03-02T02:35:56;94398.38;;;12.17;59.75
61292;BME280;47165;42.664;23.368;2024-03-02T02:38:22;94398.28;;;12.18;59.55
61292;BME280;47165;42.664;23.368;2024-03-02T02:40:47;94397.53;;;12.16;59.38
61292;BME280;47165;42.664;23.368;2024-03-02T02:43:13;94391.69;;;12.13;59.84
61292;BME280;47165;42.664;23.368;2024-03-02T02:45:38;94396.81;;;12.14;59.56
61292;BME280;47165;42.664;23.368;2024-03-02T02:48:04;94396.69;;;12.16;59.67
61292;BME280;47165;42.664;23.368;2024-03-02T02:50:30;94390.16;;;12.10;60.05
61292;BME280;47165;42.664;23.368;2024-03-02T02:52:56;94399.44;;;12.14;59.96
61292;BME280;47165;42.664;23.368;2024-03-02T02:55:21;94398.09;;;12.08;59.75
61292;BME280;47165;42.664;23.368;2024-03-02T02:57:47;94399.03;;;12.07;59.68
61292;BME280;47165;42.664;23.368;2024-03-02T03:00:14;94401.53;;;12.09;59.76
61292;BME280;47165;42.664;23.368;2024-03-02T03:02:41;94397.75;;;12.13;59.80
61292;BME280;47165;42.664;23.368;2024-03-02T03:05:08;94403.00;;;12.13;59.59
61292;BME280;47165;42.664;23.368;2024-03-02T03:07:34;94401.66;;;12.07;59.84
61292;BME280;47165;42.664;23.368;2024-03-02T03:10:00;94397.75;;;12.13;59.93
61292;BME280;47165;42.664;23.368;2024-03-02T03:12:26;94400.47;;;12.12;59.75
61292;BME280;47165;42.664;23.368;2024-03-02T03:14:52;94397.75;;;12.13;59.80
61292;BME280;47165;42.664;23.368;2024-03-02T03:17:17;94397.75;;;12.13;59.98
61292;BME280;47165;42.664;23.368;2024-03-02T03:19:43;94397.03;;;12.11;60.09
61292;BME280;47165;42.664;23.368;2024-03-02T03:22:09;94399.44;;;12.14;60.51
61292;BME280;47165;42.664;23.368;2024-03-02T03:24:34;94402.06;;;12.14;60.40
61292;BME280;47165;42.664;23.368;2024-03-02T03:26:59;94395.75;;;12.17;60.56
61292;BME280;47165;42.664;23.368;2024-03-02T03:29:25;94401.94;;;12.16;60.30
61292;BME280;47165;42.664;23.368;2024-03-02T03:31:51;94396.69;;;12.16;60.03
61292;BME280;47165;42.664;23.368;2024-03-02T03:34:16;94405.41;;;12.16;60.18
61292;BME280;47165;42.664;23.368;2024-03-02T03:36:42;94407.06;;;12.17;60.21
61292;BME280;47165;42.664;23.368;2024-03-02T03:39:07;94402.06;;;12.14;60.09
61292;BME280;47165;42.664;23.368;2024-03-02T03:41:33;94406.44;;;12.14;60.46
61292;BME280;47165;42.664;23.368;2024-03-02T03:43:58;94404.34;;;12.19;60.12
61292;BME280;47165;42.664;23.368;2024-03-02T03:46:24;94402.06;;;12.14;60.14
61292;BME280;47165;42.664;23.368;2024-03-02T03:48:50;94403.00;;;12.13;60.04
61292;BME280;47165;42.664;23.368;2024-03-02T03:51:15;94410.34;;;12.08;60.16
61292;BME280;47165;42.664;23.368;2024-03-02T03:53:41;94403.94;;;12.12;60.20
61292;BME280;47165;42.664;23.368;2024-03-02T03:56:07;94393.22;;;12.04;60.56
61292;BME280;47165;42.664;23.368;2024-03-02T03:58:32;94405.31;;;12.05;60.94
61292;BME280;47165;42.664;23.368;2024-03-02T04:00:58;94406.66;;;12.11;60.84
61292;BME280;47165;42.664;23.368;2024-03-02T04:03:23;94398.09;;;12.08;60.89
61292;BME280;47165;42.664;23.368;2024-03-02T04:05:49;94400.47;;;12.12;61.10
61292;BME280;47165;42.664;23.368;2024-03-02T04:08:14;94404.69;;;12.14;60.89
61292;BME280;47165;42.664;23.368;2024-03-02T04:10:39;94406.06;;;12.07;61.09
61292;BME280;47165;42.664;23.368;2024-03-02T04:13:05;94405.13;;;12.08;61.00
61292;BME280;47165;42.664;23.368;2024-03-02T04:15:31;94405.00;;;12.10;61.00
61292;BME280;47165;42.664;23.368;2024-03-02T04:17:56;94397.75;;;12.13;60.88
61292;BME280;47165;42.664;23.368;2024-03-02T04:20:22;94396.09;;;12.12;60.86
61292;BME280;47165;42.664;23.368;2024-03-02T04:22:47;94398.44;;;12.04;61.01
61292;BME280;47165;42.664;23.368;2024-03-02T04:25:13;94400.91;;;12.05;60.91
61292;BME280;47165;42.664;23.368;2024-03-02T04:27:38;94402.59;;;12.06;60.87
61292;BME280;47165;42.664;23.368;2024-03-02T04:30:05;94408.66;;;12.07;60.82
61292;BME280;47165;42.664;23.368;2024-03-02T04:32:30;94408.19;;;12.02;60.88
61292;BME280;47165;42.664;23.368;2024-03-02T04:34:56;94409.13;;;12.01;60.64
61292;BME280;47165;42.664;23.368;2024-03-02T04:37:22;94408.91;;;12.04;60.58
61292;BME280;47165;42.664;23.368;2024-03-02T04:39:48;94410.81;;;12.02;61.13
61292;BME280;47165;42.664;23.368;2024-03-02T04:42:13;94411.63;;;12.02;61.34
61292;BME280;47165;42.664;23.368;2024-03-02T04:44:39;94416.03;;;12.02;61.30
61292;BME280;47165;42.664;23.368;2024-03-02T04:47:04;94410.66;;;12.03;61.28
61292;BME280;47165;42.664;23.368;2024-03-02T04:49:30;94408.03;;;12.03;61.51
61292;BME280;47165;42.664;23.368;2024-03-02T04:51:56;94414.13;;;12.04;60.99
61292;BME280;47165;42.664;23.368;2024-03-02T04:54:22;94411.63;;;12.02;60.70
61292;BME280;47165;42.664;23.368;2024-03-02T04:56:47;94420.09;;;12.06;60.99
61292;BME280;47165;42.664;23.368;2024-03-02T04:59:18;94422.72;;;12.06;61.44
61292;BME280;47165;42.664;23.368;2024-03-02T05:01:44;94421.75;;;12.07;61.82
61292;BME280;47165;42.664;23.368;2024-03-02T05:04:10;94416.03;;;12.02;62.27
61292;BME280;47165;42.664;23.368;2024-03-02T05:06:39;94423.16;;;12.00;62.44
61292;BME280;47165;42.664;23.368;2024-03-02T05:09:08;94427.31;;;12.02;62.48
61292;BME280;47165;42.664;23.368;2024-03-02T05:11:34;94428.16;;;12.03;62.86
61292;BME280;47165;42.664;23.368;2024-03-02T05:14:06;94427.31;;;12.02;63.05
61292;BME280;47165;42.664;23.368;2024-03-02T05:16:37;94431.72;;;12.02;63.23
61292;BME280;47165;42.664;23.368;2024-03-02T05:19:07;94427.75;;;11.96;63.74
61292;BME280;47165;42.664;23.368;2024-03-02T05:21:33;94432.16;;;11.96;63.65
61292;BME280;47165;42.664;23.368;2024-03-02T05:23:59;94436.34;;;11.98;63.82
61292;BME280;47165;42.664;23.368;2024-03-02T05:26:24;94433.38;;;12.03;63.49
61292;BME280;47165;42.664;23.368;2024-03-02T05:28:50;94439.59;;;12.02;63.67
61292;BME280;47165;42.664;23.368;2024-03-02T05:31:15;94443.22;;;11.99;63.68
61292;BME280;47165;42.664;23.368;2024-03-02T05:33:42;94443.13;;;12.01;63.86
61292;BME280;47165;42.664;23.368;2024-03-02T05:36:07;94448.34;;;12.01;64.15
61292;BME280;47165;42.664;23.368;2024-03-02T05:38:36;94450.88;;;12.02;64.28
61292;BME280;47165;42.664;23.368;2024-03-02T05:41:02;94448.69;;;11.96;64.26
61292;BME280;47165;42.664;23.368;2024-03-02T05:43:28;94455.00;;;11.94;64.61
61292;BME280;47165;42.664;23.368;2024-03-02T05:45:53;94455.41;;;11.87;64.63
61292;BME280;47165;42.664;23.368;2024-03-02T05:48:19;94463.66;;;11.94;64.38
61292;BME280;47165;42.664;23.368;2024-03-02T05:50:44;94467.44;;;11.90;64.64
61292;BME280;47165;42.664;23.368;2024-03-02T05:53:10;94459.69;;;11.88;65.01
61292;BME280;47165;42.664;23.368;2024-03-02T05:55:35;94469.00;;;11.93;65.05
61292;BME280;47165;42.664;23.368;2024-03-02T05:58:00;94464.59;;;11.93;64.63
61292;BME280;47165;42.664;23.368;2024-03-02T06:00:32;94466.69;;;11.88;64.45
61292;BME280;47165;42.664;23.368;2024-03-02T06:02:59;94469.22;;;11.90;64.65
61292;BME280;47165;42.664;23.368;2024-03-02T06:05:24;94467.44;;;11.90;64.81
61292;BME280;47165;42.664;23.368;2024-03-02T06:07:50;94475.28;;;11.90;65.29
61292;BME280;47165;42.664;23.368;2024-03-02T06:10:16;94466.47;;;11.91;65.44
61292;BME280;47165;42.664;23.368;2024-03-02T06:12:43;94464.72;;;11.92;65.87
61292;BME280;47165;42.664;23.368;2024-03-02T06:15:09;94469.00;;;11.93;66.06
61292;BME280;47165;42.664;23.368;2024-03-02T06:17:37;94469.72;;;11.95;65.50
61292;BME280;47165;42.664;23.368;2024-03-02T06:20:03;94464.41;;;11.96;65.33
61292;BME280;47165;42.664;23.368;2024-03-02T06:22:29;94466.06;;;11.97;65.41
61292;BME280;47165;42.664;23.368;2024-03-02T06:24:54;94473.78;;;11.99;65.73
61292;BME280;47165;42.664;23.368;2024-03-02T06:27:20;94467.75;;;11.98;66.05
61292;BME280;47165;42.664;23.368;2024-03-02T06:29:45;94471.41;;;11.96;66.15
61292;BME280;47165;42.664;23.368;2024-03-02T06:32:11;94474.63;;;11.99;66.27
61292;BME280;47165;42.664;23.368;2024-03-02T06:34:36;94475.47;;;12.00;65.74
61292;BME280;47165;42.664;23.368;2024-03-02T06:37:02;94481.31;;;12.03;65.70
61292;BME280;47165;42.664;23.368;2024-03-02T06:39:27;94483.09;;;12.03;65.92
61292;BME280;47165;42.664;23.368;2024-03-02T06:41:54;94477.88;;;12.03;65.88
61292;BME280;47165;42.664;23.368;2024-03-02T06:44:19;94489.06;;;12.05;65.75
61292;BME280;47165;42.664;23.368;2024-03-02T06:49:20;94486.25;;;12.08;65.49
61292;BME280;47165;42.664;23.368;2024-03-02T06:51:45;94487.16;;;12.07;65.51
61292;BME280;47165;42.664;23.368;2024-03-02T06:54:11;94487.78;;;12.11;65.70
61292;BME280;47165;42.664;23.368;2024-03-02T06:56:36;94485.91;;;12.13;65.62
61292;BME280;47165;42.664;23.368;2024-03-02T06:59:03;94479.94;;;12.11;65.73
61292;BME280;47165;42.664;23.368;2024-03-02T07:01:29;94492.94;;;12.12;65.46
61292;BME280;47165;42.664;23.368;2024-03-02T07:03:55;94488.63;;;12.11;65.08
61292;BME280;47165;42.664;23.368;2024-03-02T07:08:56;94494.59;;;12.13;64.80
61292;BME280;47165;42.664;23.368;2024-03-02T07:11:22;94491.03;;;12.14;64.77
61292;BME280;47165;42.664;23.368;2024-03-02T07:13:47;94493.75;;;12.13;65.32
61292;BME280;47165;42.664;23.368;2024-03-02T07:16:12;94496.47;;;12.11;65.64
61292;BME280;47165;42.664;23.368;2024-03-02T07:18:54;94502.66;;;12.10;65.82
61292;BME280;47165;42.664;23.368;2024-03-02T07:21:20;94490.75;;;12.06;66.17
61292;BME280;47165;42.664;23.368;2024-03-02T07:23:47;94500.16;;;12.08;65.97
61292;BME280;47165;42.664;23.368;2024-03-02T07:26:13;94500.06;;;12.10;66.11
61292;BME280;47165;42.664;23.368;2024-03-02T07:28:41;94506.75;;;12.14;65.61
61292;BME280;47165;42.664;23.368;2024-03-02T07:31:06;94497.44;;;12.10;65.32
61292;BME280;47165;42.664;23.368;2024-03-02T07:33:32;94504.44;;;12.10;65.29
61292;BME280;47165;42.664;23.368;2024-03-02T07:35:58;94505.16;;;12.12;65.74
61292;BME280;47165;42.664;23.368;2024-03-02T07:38:28;94507.66;;;12.13;65.54
61292;BME280;47165;42.664;23.368;2024-03-02T07:40:54;94510.19;;;12.15;65.35
61292;BME280;47165;42.664;23.368;2024-03-02T07:43:20;94510.81;;;12.18;65.03
61292;BME280;47165;42.664;23.368;2024-03-02T07:45:46;94512.69;;;12.16;65.08
61292;BME280;47165;42.664;23.368;2024-03-02T07:48:12;94523.16;;;12.16;65.55
61292;BME280;47165;42.664;23.368;2024-03-02T07:50:37;94509.03;;;12.19;64.97
61292;BME280;47165;42.664;23.368;2024-03-02T07:53:07;94513.44;;;12.18;65.09
61292;BME280;47165;42.664;23.368;2024-03-02T07:55:35;94510.81;;;12.18;64.85
61292;BME280;47165;42.664;23.368;2024-03-02T07:58:01;94515.81;;;12.21;65.23
61292;BME280;47165;42.664;23.368;2024-03-02T08:00:27;94513.94;;;12.23;64.79
61292;BME280;47165;42.664;23.368;2024-03-02T08:02:55;94520.22;;;12.21;65.12
61292;BME280;47165;42.664;23.368;2024-03-02T08:05:21;94515.81;;;12.21;64.98
61292;BME280;47165;42.664;23.368;2024-03-02T08:07:47;94522.94;;;12.19;65.34
61292;BME280;47165;42.664;23.368;2024-03-02T08:10:13;94532.47;;;12.20;65.67
61292;BME280;47165;42.664;23.368;2024-03-02T08:12:38;94531.75;;;12.18;65.92
61292;BME280;47165;42.664;23.368;2024-03-02T08:15:04;94529.88;;;12.20;65.81
61292;BME280;47165;42.664;23.368;2024-03-02T08:17:30;94536.56;;;12.24;65.45
61292;BME280;47165;42.664;23.368;2024-03-02T08:19:56;94531.53;;;12.21;65.50
61292;BME280;47165;42.664;23.368;2024-03-02T08:22:22;94533.22;;;12.22;65.76
61292;BME280;47165;42.664;23.368;2024-03-02T08:24:48;94529.44;;;12.26;65.96
61292;BME280;47165;42.664;23.368;2024-03-02T08:27:13;94533.69;;;12.27;66.06
61292;BME280;47165;42.664;23.368;2024-03-02T08:29:39;94532.63;;;12.30;66.05
61292;BME280;47165;42.664;23.368;2024-03-02T08:32:06;94527.09;;;12.35;66.03
61292;BME280;47165;42.664;23.368;2024-03-02T08:34:32;94527.81;;;12.37;65.94
61292;BME280;47165;42.664;23.368;2024-03-02T08:36:59;94526.88;;;12.38;65.96
61292;BME280;47165;42.664;23.368;2024-03-02T08:39:24;94524.88;;;12.41;66.41
61292;BME280;47165;42.664;23.368;2024-03-02T08:41:50;94515.94;;;12.44;66.21
61292;BME280;47165;42.664;23.368;2024-03-02T08:44:16;94525.78;;;12.53;65.93
61292;BME280;47165;42.664;23.368;2024-03-02T08:46:42;94525.34;;;12.46;65.56
61292;BME280;47165;42.664;23.368;2024-03-02T08:49:07;94520.75;;;12.50;65.77
61292;BME280;47165;42.664;23.368;2024-03-02T08:51:33;94523.88;;;12.55;65.83
61292;BME280;47165;42.664;23.368;2024-03-02T08:53:59;94527.81;;;12.61;65.21
61292;BME280;47165;42.664;23.368;2024-03-02T08:56:24;94523.09;;;12.66;65.29
61292;BME280;47165;42.664;23.368;2024-03-02T08:58:51;94520.13;;;12.71;65.00
61292;BME280;47165;42.664;23.368;2024-03-02T09:01:17;94528.16;;;12.80;65.16
61292;BME280;47165;42.664;23.368;2024-03-02T09:03:43;94517.22;;;12.86;65.26
61292;BME280;47165;42.664;23.368;2024-03-02T09:06:12;94529.81;;;12.81;65.81
61292;BME280;47165;42.664;23.368;2024-03-02T09:08:39;94515.31;;;12.88;65.86
61292;BME280;47165;42.664;23.368;2024-03-02T09:11:05;94520.22;;;12.93;65.86
61292;BME280;47165;42.664;23.368;2024-03-02T09:13:32;94525.00;;;12.99;65.76
61292;BME280;47165;42.664;23.368;2024-03-02T09:15:58;94526.34;;;13.05;65.87
61292;BME280;47165;42.664;23.368;2024-03-02T09:18:23;94524.72;;;13.15;65.55
61292;BME280;47165;42.664;23.368;2024-03-02T09:20:49;94533.28;;;13.17;65.27
61292;BME280;47165;42.664;23.368;2024-03-02T09:23:14;94534.72;;;13.21;65.26
61292;BME280;47165;42.664;23.368;2024-03-02T09:25:40;94536.28;;;13.24;65.14
61292;BME280;47165;42.664;23.368;2024-03-02T09:28:05;94539.19;;;13.32;64.53
61292;BME280;47165;42.664;23.368;2024-03-02T09:30:32;94532.56;;;13.39;63.69
61292;BME280;47165;42.664;23.368;2024-03-02T09:32:57;94541.34;;;13.38;63.85
61292;BME280;47165;42.664;23.368;2024-03-02T09:35:23;94537.44;;;13.44;63.27
61292;BME280;47165;42.664;23.368;2024-03-02T09:37:48;94537.44;;;13.44;62.68
61292;BME280;47165;42.664;23.368;2024-03-02T09:40:14;94538.06;;;13.47;62.00
61292;BME280;47165;42.664;23.368;2024-03-02T09:42:40;94520.03;;;13.43;61.82
61292;BME280;47165;42.664;23.368;2024-03-02T09:45:06;94533.53;;;13.50;62.08
61292;BME280;47165;42.664;23.368;2024-03-02T09:47:33;94539.72;;;13.48;62.18
61292;BME280;47165;42.664;23.368;2024-03-02T09:49:58;94539.50;;;13.52;62.52
61292;BME280;47165;42.664;23.368;2024-03-02T09:52:24;94537.34;;;13.57;62.28
61292;BME280;47165;42.664;23.368;2024-03-02T09:54:50;94533.16;;;13.54;62.04
61292;BME280;47165;42.664;23.368;2024-03-02T09:57:15;94543.06;;;13.51;62.14
61292;BME280;47165;42.664;23.368;2024-03-02T09:59:41;94544.38;;;13.56;62.17
61292;BME280;47165;42.664;23.368;2024-03-02T10:02:06;94541.03;;;13.54;62.06
61292;BME280;47165;42.664;23.368;2024-03-02T10:04:33;94537.91;;;13.49;62.55
61292;BME280;47165;42.664;23.368;2024-03-02T10:07:19;94532.09;;;13.57;62.51
61292;BME280;47165;42.664;23.368;2024-03-02T10:09:48;94538.16;;;13.57;62.82
61292;BME280;47165;42.664;23.368;2024-03-02T10:12:16;94537.94;;;13.60;62.49
61292;BME280;47165;42.664;23.368;2024-03-02T10:14:43;94540.94;;;13.56;62.43
61292;BME280;47165;42.664;23.368;2024-03-02T10:17:10;94539.25;;;13.55;62.96
61292;BME280;47165;42.664;23.368;2024-03-02T10:19:36;94538.41;;;13.54;63.34
61292;BME280;47165;42.664;23.368;2024-03-02T10:22:07;94540.22;;;13.54;63.54
61292;BME280;47165;42.664;23.368;2024-03-02T10:24:43;94538.41;;;13.54;63.41
61292;BME280;47165;42.664;23.368;2024-03-02T10:27:17;94536.50;;;13.56;63.79
61292;BME280;47165;42.664;23.368;2024-03-02T10:29:45;94535.44;;;13.59;63.44
61292;BME280;47165;42.664;23.368;2024-03-02T10:32:11;94533.78;;;13.58;63.69
61292;BME280;47165;42.664;23.368;2024-03-02T10:34:39;94531.63;;;13.63;63.84
61292;BME280;47165;42.664;23.368;2024-03-02T10:37:05;94533.31;;;13.64;64.01
61292;BME280;47165;42.664;23.368;2024-03-02T10:39:32;94533.53;;;13.61;63.63
61292;BME280;47165;42.664;23.368;2024-03-02T10:42:02;94529.81;;;13.63;63.54
61292;BME280;47165;42.664;23.368;2024-03-02T10:44:28;94528.41;;;13.59;63.77
61292;BME280;47165;42.664;23.368;2024-03-02T10:46:55;94532.00;;;13.58;63.53
61292;BME280;47165;42.664;23.368;2024-03-02T10:49:22;94531.63;;;13.63;63.36
61292;BME280;47165;42.664;23.368;2024-03-02T10:51:48;94524.00;;;13.60;63.01
61292;BME280;47165;42.664;23.368;2024-03-02T10:54:13;94523.03;;;13.61;63.00
61292;BME280;47165;42.664;23.368;2024-03-02T10:56:44;94521.13;;;13.63;63.11
61292;BME280;47165;42.664;23.368;2024-03-02T11:02:01;94518.50;;;13.63;63.48
61292;BME280;47165;42.664;23.368;2024-03-02T11:04:28;94524.59;;;13.63;63.77
61292;BME280;47165;42.664;23.368;2024-03-02T11:07:08;94518.50;;;13.63;63.33
61292;BME280;47165;42.664;23.368;2024-03-02T11:09:38;94515.88;;;13.63;62.90
61292;BME280;47165;42.664;23.368;2024-03-02T11:12:19;94515.28;;;13.59;63.11
61292;BME280;47165;42.664;23.368;2024-03-02T11:14:44;94518.38;;;13.53;63.16
61292;BME280;47165;42.664;23.368;2024-03-02T11:17:14;94516.59;;;13.54;63.30
61292;BME280;47165;42.664;23.368;2024-03-02T11:19:44;94513.25;;;13.52;63.53
61292;BME280;47165;42.664;23.368;2024-03-02T11:22:11;94507.56;;;13.58;63.73
61292;BME280;47165;42.664;23.368;2024-03-02T11:24:37;94511.59;;;13.62;63.21
61292;BME280;47165;42.664;23.368;2024-03-02T11:27:06;94501.44;;;13.57;63.11
61292;BME280;47165;42.664;23.368;2024-03-02T11:32:17;94512.06;;;13.67;63.02
61292;BME280;47165;42.664;23.368;2024-03-02T11:34:45;94513.88;;;13.66;62.89
61292;BME280;47165;42.664;23.368;2024-03-02T11:37:12;94508.72;;;13.65;62.63
61292;BME280;47165;42.664;23.368;2024-03-02T11:39:39;94509.81;;;13.62;62.88
61292;BME280;47165;42.664;23.368;2024-03-02T11:42:08;94507.31;;;13.61;63.08
61292;BME280;47165;42.664;23.368;2024-03-02T11:44:37;94507.66;;;13.56;63.38
61292;BME280;47165;42.664;23.368;2024-03-02T11:47:07;94512.53;;;13.61;63.26
61292;BME280;47165;42.664;23.368;2024-03-02T11:52:09;94511.09;;;13.57;62.73
61292;BME280;47165;42.664;23.368;2024-03-02T11:54:37;94515.88;;;13.52;63.18
61292;BME280;47165;42.664;23.368;2024-03-02T11:57:15;94520.88;;;13.55;62.77
61292;BME280;47165;42.664;23.368;2024-03-02T11:59:41;94511.09;;;13.57;63.08
61292;BME280;47165;42.664;23.368;2024-03-02T12:02:06;94517.31;;;13.56;62.90
61292;BME280;47165;42.664;23.368;2024-03-02T12:04:32;94513.00;;;13.55;62.86
61292;BME280;47165;42.664;23.368;2024-03-02T12:07:00;94508.03;;;13.52;62.82
61292;BME280;47165;42.664;23.368;2024-03-02T12:09:29;94514.91;;;13.53;62.58
61292;BME280;47165;42.664;23.368;2024-03-02T12:12:08;94507.78;;;13.55;62.86
61292;BME280;47165;42.664;23.368;2024-03-02T12:14:36;94510.03;;;13.59;62.71
61292;BME280;47165;42.664;23.368;2024-03-02T12:17:02;94511.22;;;13.55;62.98
61292;BME280;47165;42.664;23.368;2024-03-02T12:19:28;94514.69;;;13.56;63.36
61292;BME280;47165;42.664;23.368;2024-03-02T12:21:56;94512.78;;;13.58;63.37
61292;BME280;47165;42.664;23.368;2024-03-02T12:24:22;94514.69;;;13.56;63.31
61292;BME280;47165;42.664;23.368;2024-03-02T12:26:49;94512.78;;;13.58;63.22
61292;BME280;47165;42.664;23.368;2024-03-02T12:29:15;94515.16;;;13.61;62.83
61292;BME280;47165;42.664;23.368;2024-03-02T12:31:42;94507.06;;;13.64;62.92
61292;BME280;47165;42.664;23.368;2024-03-02T12:34:12;94511.25;;;13.66;62.87
61292;BME280;47165;42.664;23.368;2024-03-02T12:36:39;94512.31;;;13.64;62.19
61292;BME280;47165;42.664;23.368;2024-03-02T12:39:04;94507.91;;;13.64;62.43
61292;BME280;47165;42.664;23.368;2024-03-02T12:41:30;94503.25;;;13.68;62.49
61292;BME280;47165;42.664;23.368;2024-03-02T12:43:56;94512.69;;;13.71;62.41
61292;BME280;47165;42.664;23.368;2024-03-02T12:46:21;94512.69;;;13.71;62.32
61292;BME280;47165;42.664;23.368;2024-03-02T12:48:47;94505.63;;;13.71;62.35
61292;BME280;47165;42.664;23.368;2024-03-02T12:51:12;94508.03;;;13.74;61.80
61292;BME280;47165;42.664;23.368;2024-03-02T12:53:38;94510.66;;;13.74;61.58
61292;BME280;47165;42.664;23.368;2024-03-02T12:56:04;94509.09;;;13.72;61.40
61292;BME280;47165;42.664;23.368;2024-03-02T12:58:29;94508.97;;;13.73;61.43
61292;BME280;47165;42.664;23.368;2024-03-02T13:01:06;94514.94;;;13.75;61.13
61292;BME280;47165;42.664;23.368;2024-03-02T13:03:36;94508.97;;;13.73;61.49